Time;durP1;ratioP1;P1;durP2;ratioP2;P2;SDS_P1;SDS_P2;PMS_P1;PMS_P2;Temp;Humidity;BMP_temperature;BMP_pressure;BME280_temperature;BME280_humidity;BME280_pressure;Samples;Min_cycle;Max_cycle;Signal;HPM_P1;HPM_P2
2022/03/31 00:00:37;;;;;;;20.97;16.82;;;;;;;7.27;76.69;99549.09;1721569;82;21568;-73
2022/03/31 00:03:06;;;;;;;21.55;16.97;;;;;;;7.35;76.50;99545.16;1693581;83;21169;-73
2022/03/31 00:05:35;;;;;;;19.05;15.60;;;;;;;7.40;76.34;99537.99;1709210;83;21011;-74
2022/03/31 00:08:06;;;;;;;21.00;16.77;;;;;;;7.41;76.13;99544.92;1706993;83;21555;-74
2022/03/31 00:10:36;;;;;;;18.40;15.83;;;;;;;7.40;75.96;99545.16;1690330;83;21660;-74
2022/03/31 00:13:10;;;;;;;17.70;14.75;;;;;;;7.40;75.87;99535.33;1679648;84;21150;-74
2022/03/31 00:15:38;;;;;;;18.50;15.98;;;;;;;7.40;75.74;99540.65;1691310;83;21260;-74
2022/03/31 00:18:06;;;;;;;19.50;16.12;;;;;;;7.39;75.67;99540.92;1692529;83;21226;-73
2022/03/31 00:20:35;;;;;;;20.80;17.02;;;;;;;7.42;75.65;99539.87;1691390;82;21102;-74
2022/03/31 00:23:05;;;;;;;19.02;15.40;;;;;;;7.49;75.58;99530.33;1704760;82;21106;-74
2022/03/31 00:25:34;;;;;;;20.53;16.40;;;;;;;7.52;75.42;99531.13;1562182;82;10000315;-74
2022/03/31 00:28:03;;;;;;;20.37;16.25;;;;;;;7.56;75.36;99536.19;1696237;83;21652;-74
2022/03/31 00:30:33;;;;;;;21.05;17.73;;;;;;;7.59;75.21;99529.02;1693940;83;21098;-75
2022/03/31 00:33:00;;;;;;;22.87;16.82;;;;;;;7.55;75.01;99522.64;1699914;82;21177;-74
2022/03/31 00:35:29;;;;;;;20.40;17.52;;;;;;;7.52;74.94;99531.13;1690922;84;21109;-74
2022/03/31 00:37:56;;;;;;;21.33;17.70;;;;;;;7.52;74.93;99532.46;1707957;83;21553;-74
2022/03/31 00:40:25;;;;;;;21.65;17.75;;;;;;;7.57;74.93;99526.34;1691912;83;21569;-74
2022/03/31 00:42:56;;;;;;;21.23;17.15;;;;;;;7.54;74.81;99529.02;1705663;83;20980;-73
2022/03/31 00:45:46;;;;;;;20.72;17.70;;;;;;;7.52;74.79;99532.46;1695564;84;21175;-74
2022/03/31 00:48:04;;;;;;;21.33;17.37;;;;;;;7.54;74.85;99537.53;1691156;84;21078;-74
2022/03/31 00:50:33;;;;;;;19.73;15.90;;;;;;;7.60;74.86;99530.64;1696458;83;21620;-74
2022/03/31 00:53:00;;;;;;;21.77;17.60;;;;;;;7.62;74.76;99532.48;1692698;83;21078;-74
2022/03/31 00:55:27;;;;;;;18.25;15.10;;;;;;;7.62;74.66;99521.06;1690014;83;21020;-74
2022/03/31 00:57:55;;;;;;;20.43;17.52;;;;;;;7.61;74.56;99514.95;1690390;84;21737;-74
2022/03/31 01:00:24;;;;;;;20.52;17.05;;;;;;;7.55;74.55;99520.52;1695267;83;21122;-74
2022/03/31 01:02:52;;;;;;;20.65;15.60;;;;;;;7.57;74.61;99509.90;1681922;84;21226;-73
2022/03/31 01:05:21;;;;;;;20.92;17.17;;;;;;;7.54;74.47;99506.97;1672184;84;21043;-73
2022/03/31 01:07:49;;;;;;;19.92;16.32;;;;;;;7.44;74.52;99511.19;1691626;84;21046;-74
2022/03/31 01:10:17;;;;;;;19.42;15.43;;;;;;;7.41;74.58;99502.95;1690444;83;20959;-73
2022/03/31 01:12:46;;;;;;;17.10;14.18;;;;;;;7.36;74.65;99500.27;1673210;83;21094;-73
2022/03/31 01:15:19;;;;;;;20.02;16.65;;;;;;;7.27;74.74;99490.16;1692875;83;21244;-74
2022/03/31 01:17:48;;;;;;;19.92;16.35;;;;;;;7.15;74.86;99506.84;1694017;84;21098;-74
2022/03/31 01:20:21;;;;;;;19.15;16.60;;;;;;;7.12;75.10;99527.27;1688527;83;21070;-74
2022/03/31 01:22:50;;;;;;;21.60;16.60;;;;;;;7.14;75.21;99522.52;1691835;84;21070;-74
2022/03/31 01:25:18;;;;;;;19.57;16.20;;;;;;;7.16;75.20;99520.91;1704723;83;21026;-74
2022/03/31 01:27:46;;;;;;;20.50;17.02;;;;;;;7.18;75.28;99523.59;1692044;84;21783;-74
2022/03/31 01:30:18;;;;;;;19.95;16.67;;;;;;;7.24;75.35;99514.58;1684807;83;21078;-73
2022/03/31 01:32:47;;;;;;;19.67;16.37;;;;;;;7.32;75.36;99496.55;1683957;84;21081;-73
2022/03/31 01:35:14;;;;;;;19.70;16.30;;;;;;;7.35;75.29;99500.00;1682413;84;21030;-74
2022/03/31 01:37:42;;;;;;;17.95;14.78;;;;;;;7.33;75.22;99495.47;1654759;86;21086;-74
2022/03/31 01:40:10;;;;;;;18.57;15.18;;;;;;;7.31;75.24;99489.64;1639582;85;22044;-74
2022/03/31 01:42:38;;;;;;;20.55;15.90;;;;;;;7.25;75.23;99492.27;1653712;86;21082;-73
2022/03/31 01:45:10;;;;;;;21.20;17.00;;;;;;;7.22;75.30;99518.55;1656478;85;21082;-73
2022/03/31 01:47:39;;;;;;;21.25;17.20;;;;;;;7.17;75.31;99517.19;1630306;87;21067;-74
2022/03/31 01:50:09;;;;;;;22.02;17.80;;;;;;;7.16;75.47;99516.39;1647561;84;21141;-74
2022/03/31 01:52:38;;;;;;;20.17;15.93;;;;;;;7.25;75.59;99511.39;1649551;86;21435;-74
2022/03/31 01:55:06;;;;;;;21.95;16.55;;;;;;;7.34;75.54;99513.00;1656610;85;20975;-74
2022/03/31 01:57:34;;;;;;;20.70;17.50;;;;;;;7.34;75.48;99507.18;1668349;84;20979;-74
2022/03/31 02:00:02;;;;;;;20.02;16.40;;;;;;;7.37;75.58;99499.20;1686495;84;21110;-73
2022/03/31 02:02:32;;;;;;;20.02;15.93;;;;;;;7.46;75.67;99488.33;1654205;84;21661;-74
2022/03/31 02:04:59;;;;;;;20.90;17.52;;;;;;;7.54;75.66;99472.43;1649817;85;21211;-74
2022/03/31 02:07:26;;;;;;;23.42;18.52;;;;;;;7.57;75.61;99470.55;1650009;85;21104;-73
2022/03/31 02:09:55;;;;;;;24.55;19.75;;;;;;;7.55;75.49;99455.41;1658581;85;21007;-73
2022/03/31 02:12:22;;;;;;;21.40;16.67;;;;;;;7.56;75.51;99451.15;1647882;85;21043;-72
2022/03/31 02:14:50;;;;;;;22.50;16.87;;;;;;;7.57;75.35;99434.67;1651483;84;21625;-72
2022/03/31 02:17:17;;;;;;;23.10;18.73;;;;;;;7.51;75.29;99439.20;1671933;84;21109;-73
2022/03/31 02:19:44;;;;;;;25.65;19.25;;;;;;;7.41;75.27;99421.39;1678501;83;20928;-73
2022/03/31 02:22:12;;;;;;;23.12;18.30;;;;;;;7.32;75.38;99417.65;1679537;83;21144;-73
2022/03/31 02:24:39;;;;;;;24.43;19.40;;;;;;;7.28;75.53;99417.38;1668256;84;21078;-73
2022/03/31 02:27:06;;;;;;;22.42;18.05;;;;;;;7.24;75.63;99412.87;1676584;84;21055;-74
2022/03/31 02:29:33;;;;;;;23.57;19.80;;;;;;;7.24;75.86;99415.52;1691410;83;21208;-73
2022/03/31 02:32:00;;;;;;;25.50;19.48;;;;;;;7.29;75.95;99413.66;1667680;83;21008;-74
2022/03/31 02:34:29;;;;;;;28.00;21.73;;;;;;;7.37;76.04;99408.88;1664070;85;21130;-73
2022/03/31 02:36:58;;;;;;;28.98;21.07;;;;;;;7.45;76.06;99405.18;1684932;84;21022;-73
2022/03/31 02:39:25;;;;;;;22.93;18.12;;;;;;;7.53;75.96;99409.16;1666998;84;21110;-74
2022/03/31 02:41:53;;;;;;;23.75;17.95;;;;;;;7.58;75.87;99399.09;1654591;85;21431;-74
2022/03/31 02:44:20;;;;;;;25.72;20.10;;;;;;;7.56;75.81;99406.52;1663314;85;21012;-74
2022/03/31 02:46:47;;;;;;;23.50;18.37;;;;;;;7.53;75.82;99407.84;1661025;84;21172;-74
2022/03/31 02:49:16;;;;;;;24.70;19.75;;;;;;;7.56;75.87;99410.50;1658681;85;21113;-74
2022/03/31 02:51:43;;;;;;;23.87;19.27;;;;;;;7.57;75.86;99405.44;1656288;85;20987;-75
2022/03/31 02:56:56;;;;;;;23.18;18.82;;;;;;;7.65;75.85;99411.58;1681247;83;21063;-75
2022/03/31 02:59:24;;;;;;;22.42;17.95;;;;;;;7.65;75.86;99404.39;1676716;83;21079;-74
2022/03/31 03:01:51;;;;;;;21.33;16.97;;;;;;;7.61;75.81;99404.67;1686376;83;21666;-75
2022/03/31 03:04:18;;;;;;;22.87;18.82;;;;;;;7.55;75.90;99399.08;1676131;83;21485;-73
2022/03/31 03:06:46;;;;;;;23.45;19.02;;;;;;;7.52;76.03;99402.27;1681482;83;21290;-73
2022/03/31 03:09:13;;;;;;;23.67;19.37;;;;;;;7.52;76.15;99396.95;1701351;83;20991;-72
2022/03/31 03:11:41;;;;;;;22.50;18.92;;;;;;;7.56;76.21;99392.69;1702597;83;21051;-73
2022/03/31 03:14:12;;;;;;;24.82;18.92;;;;;;;7.63;76.25;99392.42;1689598;84;21023;-73
2022/03/31 03:16:39;;;;;;;24.65;19.48;;;;;;;7.68;76.23;99395.89;1677933;83;21150;-73
2022/03/31 03:19:07;;;;;;;24.75;19.77;;;;;;;7.78;76.26;99394.30;1693926;83;21239;-73
2022/03/31 03:21:34;;;;;;;24.60;19.37;;;;;;;7.88;76.23;99394.29;1685809;84;21173;-74
2022/03/31 03:24:02;;;;;;;23.30;19.00;;;;;;;7.95;76.11;99380.98;1678605;83;21055;-74
2022/03/31 03:26:30;;;;;;;22.27;17.62;;;;;;;8.04;76.01;99383.91;1683761;83;21601;-73
2022/03/31 03:28:57;;;;;;;23.60;17.48;;;;;;;8.08;75.83;99379.63;1687037;83;21105;-72
2022/03/31 03:31:24;;;;;;;23.62;19.73;;;;;;;8.09;75.67;99373.23;1678382;84;21804;-72
2022/03/31 03:33:52;;;;;;;25.40;19.48;;;;;;;8.09;75.61;99371.91;1682391;84;20980;-72
2022/03/31 03:36:21;;;;;;;24.02;19.40;;;;;;;8.15;75.57;99364.73;1677901;83;21142;-73
2022/03/31 03:38:49;;;;;;;24.12;18.70;;;;;;;8.17;75.39;99370.05;1682267;83;21062;-73
2022/03/31 03:41:17;;;;;;;24.43;19.70;;;;;;;8.19;75.30;99367.10;1679834;84;21049;-73
2022/03/31 03:43:45;;;;;;;24.45;19.02;;;;;;;8.20;75.24;99358.08;1676713;84;21785;-73
2022/03/31 03:46:13;;;;;;;24.45;19.48;;;;;;;8.23;75.19;99360.98;1685771;83;21062;-72
2022/03/31 03:48:41;;;;;;;24.25;19.02;;;;;;;8.23;75.08;99354.34;1669136;84;21408;-73
2022/03/31 03:51:10;;;;;;;23.92;19.27;;;;;;;8.27;75.04;99354.59;1679873;83;21061;-73
2022/03/31 03:53:38;;;;;;;24.43;19.35;;;;;;;8.32;74.99;99344.45;1674496;84;21034;-73
2022/03/31 03:56:06;;;;;;;24.07;19.05;;;;;;;8.31;74.90;99334.35;1674313;83;22548;-72
2022/03/31 03:58:34;;;;;;;25.30;19.48;;;;;;;8.30;74.88;99343.95;1686608;83;21031;-75
2022/03/31 04:01:01;;;;;;;24.95;19.52;;;;;;;8.27;74.82;99333.31;1679243;84;21568;-73
2022/03/31 04:03:28;;;;;;;24.82;18.50;;;;;;;8.28;74.82;99323.46;1678561;83;20935;-73
2022/03/31 04:05:56;;;;;;;22.48;18.12;;;;;;;8.26;74.72;99327.73;1683119;83;21435;-73
2022/03/31 04:08:25;;;;;;;25.25;19.30;;;;;;;8.17;74.70;99327.48;1684809;84;21142;-74
2022/03/31 04:10:53;;;;;;;24.90;19.82;;;;;;;8.08;74.78;99329.64;1674799;84;21040;-73
2022/03/31 04:13:21;;;;;;;24.85;18.82;;;;;;;7.99;74.91;99321.41;1679822;84;21038;-74
2022/03/31 04:15:50;;;;;;;23.57;19.02;;;;;;;7.97;75.06;99330.20;1677819;83;21095;-73
2022/03/31 04:18:19;;;;;;;22.75;17.05;;;;;;;7.95;75.20;99323.81;1686830;83;21070;-73
2022/03/31 04:20:46;;;;;;;21.02;17.75;;;;;;;7.79;75.66;99317.47;1678512;84;21747;-73
2022/03/31 04:23:14;;;;;;;23.80;18.77;;;;;;;7.68;75.94;99303.41;1676809;83;21083;-72
2022/03/31 04:25:41;;;;;;;23.80;19.00;;;;;;;7.71;75.96;99301.01;1682598;83;21018;-73
2022/03/31 04:28:10;;;;;;;24.05;19.42;;;;;;;7.65;76.20;99288.00;1676999;83;22231;-72
2022/03/31 04:30:37;;;;;;;22.95;18.48;;;;;;;7.59;76.56;99281.09;1684400;84;21062;-72
2022/03/31 04:33:05;;;;;;;23.77;19.02;;;;;;;7.51;76.77;99277.92;1674660;84;21319;-72
2022/03/31 04:35:32;;;;;;;24.37;18.20;;;;;;;7.49;76.97;99279.24;1680517;83;21481;-73
2022/03/31 04:38:00;;;;;;;19.80;15.65;;;;;;;7.49;77.14;99269.95;1678621;83;21011;-73
2022/03/31 04:40:27;;;;;;;22.60;17.65;;;;;;;7.50;77.34;99266.22;1676886;84;21138;-72
2022/03/31 04:42:55;;;;;;;23.98;18.23;;;;;;;7.49;77.48;99261.44;1680360;84;21062;-73
2022/03/31 04:45:22;;;;;;;20.25;17.07;;;;;;;7.49;77.56;99262.77;1685087;83;21644;-72
2022/03/31 04:47:49;;;;;;;23.75;18.48;;;;;;;7.50;77.70;99262.23;1678648;83;21054;-74
2022/03/31 04:50:16;;;;;;;21.70;17.25;;;;;;;7.51;77.80;99258.53;1681605;83;21118;-73
2022/03/31 04:52:44;;;;;;;21.50;17.50;;;;;;;7.54;77.87;99258.00;1677095;84;21622;-74
2022/03/31 04:55:11;;;;;;;22.58;17.67;;;;;;;7.56;77.97;99258.50;1660157;85;21106;-73
2022/03/31 04:57:40;;;;;;;23.40;18.42;;;;;;;7.59;78.02;99257.18;1675125;84;21314;-72
2022/03/31 05:00:08;;;;;;;24.63;18.45;;;;;;;7.63;78.06;99253.70;1687187;83;21169;-73
2022/03/31 05:02:37;;;;;;;21.80;18.10;;;;;;;7.67;78.12;99257.44;1681059;84;21004;-72
2022/03/31 05:05:06;;;;;;;21.93;17.52;;;;;;;7.66;78.14;99253.70;1679787;83;21106;-74
2022/03/31 05:07:33;;;;;;;20.92;16.15;;;;;;;7.70;78.21;99256.08;1678522;84;21122;-73
2022/03/31 05:10:00;;;;;;;21.95;17.67;;;;;;;7.73;78.24;99243.08;1678045;83;21641;-73
2022/03/31 05:12:27;;;;;;;21.52;16.93;;;;;;;7.72;78.22;99241.46;1676711;84;21063;-72
2022/03/31 05:14:54;;;;;;;21.90;17.37;;;;;;;7.72;78.28;99235.36;1678820;83;21070;-73
2022/03/31 05:17:21;;;;;;;22.50;17.37;;;;;;;7.73;78.36;99224.98;1677392;83;21015;-72
2022/03/31 05:19:48;;;;;;;21.57;17.25;;;;;;;7.76;78.44;99225.77;1664853;84;21153;-72
2022/03/31 05:22:15;;;;;;;21.37;17.98;;;;;;;7.78;78.41;99224.19;1680226;83;21246;-72
2022/03/31 05:24:43;;;;;;;22.17;17.40;;;;;;;7.79;78.47;99229.22;1681245;83;21041;-72
2022/03/31 05:27:10;;;;;;;19.45;15.40;;;;;;;7.88;78.55;99229.47;1682140;83;21031;-73
2022/03/31 05:29:37;;;;;;;22.17;17.67;;;;;;;7.98;78.50;99223.56;1682469;84;21743;-72
2022/03/31 05:32:06;;;;;;;21.68;16.95;;;;;;;8.08;78.34;99224.06;1658065;84;21099;-73
2022/03/31 05:34:35;;;;;;;21.60;17.05;;;;;;;8.15;78.02;99204.61;1666918;83;21230;-74
2022/03/31 05:37:04;;;;;;;21.90;16.65;;;;;;;8.19;77.75;99222.97;1691489;83;21039;-73
2022/03/31 05:39:32;;;;;;;18.95;15.75;;;;;;;8.21;77.60;99215.48;1683597;83;21074;-73
2022/03/31 05:41:59;;;;;;;23.60;17.10;;;;;;;8.26;77.50;99232.48;1678185;83;21007;-73
2022/03/31 05:44:26;;;;;;;19.48;15.03;;;;;;;8.30;77.45;99238.87;1679548;83;21576;-73
2022/03/31 05:46:53;;;;;;;19.25;15.65;;;;;;;8.41;77.35;99233.77;1680918;83;21949;-74
2022/03/31 05:49:21;;;;;;;19.80;15.95;;;;;;;8.45;77.09;99237.47;1675624;83;21031;-73
2022/03/31 05:51:49;;;;;;;21.42;16.37;;;;;;;8.53;77.02;99252.08;1689456;84;21055;-73
2022/03/31 05:54:16;;;;;;;21.30;17.17;;;;;;;8.63;76.93;99262.13;1654439;85;20995;-73
2022/03/31 05:56:44;;;;;;;21.62;16.37;;;;;;;8.75;76.79;99259.64;1645706;85;21716;-74
2022/03/31 05:59:11;;;;;;;20.37;16.02;;;;;;;8.85;76.58;99253.73;1704098;83;21414;-73
2022/03/31 06:01:40;;;;;;;18.12;15.70;;;;;;;8.95;76.37;99248.05;1707220;83;21118;-73
2022/03/31 06:04:07;;;;;;;19.23;16.15;;;;;;;9.05;76.09;99235.48;1719795;82;21613;-73
2022/03/31 06:06:35;;;;;;;18.55;14.58;;;;;;;9.16;75.86;99223.65;1697397;83;21628;-73
2022/03/31 06:09:04;;;;;;;20.05;15.48;;;;;;;9.24;75.44;99218.78;1692249;82;21484;-73
2022/03/31 06:11:32;;;;;;;20.37;15.78;;;;;;;9.27;75.00;99223.55;1681053;84;21035;-73
2022/03/31 06:14:01;;;;;;;18.75;16.17;;;;;;;9.31;74.83;99217.91;1684828;84;21015;-73
2022/03/31 06:16:30;;;;;;;18.75;15.45;;;;;;;9.42;74.67;99214.09;1686599;83;20991;-73
2022/03/31 06:18:58;;;;;;;19.17;16.50;;;;;;;9.49;74.38;99213.22;1696378;83;21063;-72
2022/03/31 06:21:26;;;;;;;16.42;14.35;;;;;;;9.54;74.14;99222.51;1677204;83;21203;-73
2022/03/31 06:23:54;;;;;;;20.37;16.50;;;;;;;9.60;73.88;99222.69;1688946;83;21113;-72
2022/03/31 06:26:22;;;;;;;17.35;14.20;;;;;;;9.69;73.68;99219.41;1684428;83;21145;-72
2022/03/31 06:28:50;;;;;;;17.52;14.45;;;;;;;9.80;73.33;99210.20;1681267;83;21050;-73
2022/03/31 06:31:18;;;;;;;15.95;13.90;;;;;;;9.83;72.85;99209.09;1678643;83;21079;-73
2022/03/31 06:33:46;;;;;;;19.60;15.83;;;;;;;9.90;72.79;99203.96;1682434;84;21034;-75
2022/03/31 06:36:13;;;;;;;19.45;15.35;;;;;;;10.03;72.71;99211.27;1685901;84;21165;-72
2022/03/31 06:38:42;;;;;;;19.12;15.68;;;;;;;10.17;72.33;99212.17;1692686;84;21066;-72
2022/03/31 06:41:13;;;;;;;17.05;14.05;;;;;;;10.28;71.98;99212.86;1697411;83;21071;-73
2022/03/31 06:51:23;;;;;;;17.73;15.10;;;;;;;10.56;70.96;99225.28;1631683;86;21172;-73
2022/03/31 06:53:53;;;;;;;16.73;14.28;;;;;;;10.88;70.85;99214.38;1633072;86;21112;-73
2022/03/31 06:56:21;;;;;;;18.80;14.75;;;;;;;11.01;70.42;99202.94;1634849;86;21213;-73
2022/03/31 06:58:51;;;;;;;18.35;15.38;;;;;;;11.13;70.13;99207.83;1632485;86;21095;-73
2022/03/31 07:01:18;;;;;;;15.63;12.93;;;;;;;11.27;70.01;99207.85;1631090;86;21147;-73
2022/03/31 07:03:48;;;;;;;16.67;14.87;;;;;;;11.45;69.75;99202.99;1633490;86;21302;-73
2022/03/31 07:06:18;;;;;;;18.57;15.10;;;;;;;11.57;69.44;99200.36;1618311;86;21286;-73
2022/03/31 07:08:48;;;;;;;18.52;15.13;;;;;;;11.75;69.36;99198.16;1665572;84;21339;-73
2022/03/31 07:11:16;;;;;;;17.40;14.67;;;;;;;12.00;68.73;99190.72;1672380;83;21062;-73
2022/03/31 07:13:45;;;;;;;17.60;14.93;;;;;;;12.12;67.98;99195.02;1677696;84;21143;-73
2022/03/31 07:16:16;;;;;;;16.87;14.83;;;;;;;12.18;67.12;99191.15;1684645;83;21275;-73
2022/03/31 07:18:45;;;;;;;16.65;14.45;;;;;;;12.29;66.78;99198.41;1666922;83;21260;-73
2022/03/31 07:21:16;;;;;;;18.10;14.67;;;;;;;12.46;66.13;99187.05;1686888;83;21082;-73
2022/03/31 07:23:53;;;;;;;19.55;15.85;;;;;;;12.57;65.17;99191.88;1683225;84;21771;-74
2022/03/31 07:26:16;;;;;;;18.67;14.77;;;;;;;12.73;64.95;99183.47;1676358;83;21085;-72
2022/03/31 07:28:47;;;;;;;15.50;12.97;;;;;;;12.94;64.82;99185.91;1676818;84;22600;-74
2022/03/31 07:31:16;;;;;;;15.63;13.93;;;;;;;13.20;64.02;99178.58;1679432;83;21322;-74
2022/03/31 07:33:45;;;;;;;17.27;15.10;;;;;;;13.32;62.81;99175.56;1683018;83;21271;-74
2022/03/31 07:36:14;;;;;;;14.63;13.03;;;;;;;13.37;62.62;99181.36;1683987;82;21384;-74
2022/03/31 07:38:41;;;;;;;16.47;14.13;;;;;;;13.46;62.46;99174.67;1678489;84;21267;-75
2022/03/31 07:41:09;;;;;;;18.93;15.60;;;;;;;13.53;61.82;99184.44;1656298;84;21466;-74
2022/03/31 07:43:37;;;;;;;17.63;15.73;;;;;;;13.50;61.14;99179.69;1671442;85;21857;-73
2022/03/31 07:46:06;;;;;;;17.90;15.20;;;;;;;13.40;61.08;99186.11;1687525;84;21443;-73
2022/03/31 07:48:34;;;;;;;18.07;15.90;;;;;;;13.27;60.73;99177.06;1694636;83;21488;-73
2022/03/31 07:51:04;;;;;;;20.87;17.00;;;;;;;13.28;60.76;99167.91;1689099;82;21517;-74
2022/03/31 07:53:33;;;;;;;16.97;14.37;;;;;;;13.28;60.76;99167.91;1682393;83;21513;-73
2022/03/31 07:56:05;;;;;;;19.97;17.13;;;;;;;13.41;60.99;99166.23;1682798;83;21423;-73
2022/03/31 07:58:34;;;;;;;18.97;16.93;;;;;;;13.50;60.33;99165.72;1684261;83;21392;-73
2022/03/31 08:01:01;;;;;;;17.57;15.67;;;;;;;13.50;60.33;99165.72;1678688;83;21724;-73
2022/03/31 08:03:32;;;;;;;17.67;15.77;;;;;;;13.57;60.07;99155.33;1678920;83;21846;-73
2022/03/31 08:06:00;;;;;;;24.07;17.90;;;;;;;13.53;60.37;99150.34;1659301;83;21922;-73
2022/03/31 08:08:28;;;;;;;18.30;16.40;;;;;;;13.53;60.37;99150.34;1703563;81;21432;-71
2022/03/31 08:11:01;;;;;;;20.23;18.07;;;;;;;13.63;60.02;99147.14;1682416;84;21930;-74
2022/03/31 08:13:29;;;;;;;19.90;17.90;;;;;;;13.76;59.78;99140.87;1658265;82;21559;-74
2022/03/31 08:16:00;;;;;;;19.23;17.00;;;;;;;14.01;58.85;99146.02;1664953;84;21378;-72
2022/03/31 08:18:34;;;;;;;19.47;17.40;;;;;;;14.01;58.85;99146.02;1671050;84;21485;-74
2022/03/31 08:20:58;;;;;;;22.47;19.43;;;;;;;14.03;58.98;99147.86;1668576;84;22065;-73
2022/03/31 08:23:30;;;;;;;21.37;19.03;;;;;;;14.10;58.72;99152.20;1667786;84;22024;-74
2022/03/31 08:25:58;;;;;;;23.67;19.23;;;;;;;14.23;58.36;99148.58;1655135;85;21634;-73
2022/03/31 08:28:29;;;;;;;20.00;16.97;;;;;;;14.38;58.00;99147.86;1672213;84;22089;-74
2022/03/31 08:30:57;;;;;;;21.57;19.35;;;;;;;14.52;57.37;99147.20;1681650;84;21541;-73
2022/03/31 08:33:26;;;;;;;23.33;19.30;;;;;;;14.60;57.27;99139.66;1692308;84;21084;-74
2022/03/31 08:35:58;;;;;;;21.70;18.93;;;;;;;14.91;56.72;99140.03;1647899;84;21440;-74
2022/03/31 08:38:30;;;;;;;22.30;18.30;;;;;;;14.91;56.72;99140.03;1682969;84;22189;-74
2022/03/31 08:41:03;;;;;;;19.20;17.20;;;;;;;15.04;55.94;99136.35;1680956;83;22088;-74
2022/03/31 08:43:38;;;;;;;21.23;18.97;;;;;;;15.08;55.47;99130.56;1665444;84;22072;-74
2022/03/31 08:46:06;;;;;;;22.30;18.17;;;;;;;15.13;55.04;99130.92;1679202;84;21783;-73
2022/03/31 08:48:36;;;;;;;20.63;18.40;;;;;;;15.18;54.91;99134.23;1673192;84;22210;-72
2022/03/31 08:51:07;;;;;;;23.20;18.73;;;;;;;15.18;54.73;99139.62;1647059;85;21721;-74
2022/03/31 08:53:35;;;;;;;22.70;19.33;;;;;;;15.20;54.31;99136.06;1675448;83;21765;-72
2022/03/31 08:56:03;;;;;;;20.70;18.40;;;;;;;15.19;54.26;99142.53;1698967;83;21966;-74
2022/03/31 08:58:36;;;;;;;20.37;18.27;;;;;;;15.27;54.15;99132.06;1658630;85;21762;-72
2022/03/31 09:01:08;;;;;;;21.70;18.60;;;;;;;15.41;54.09;99121.89;1637422;84;22198;-74
2022/03/31 09:03:37;;;;;;;19.87;17.87;;;;;;;15.48;53.54;99118.91;1641682;86;21857;-73
2022/03/31 09:06:07;;;;;;;23.10;19.50;;;;;;;15.53;53.27;99127.38;1654290;85;21773;-73
2022/03/31 09:08:35;;;;;;;20.57;18.37;;;;;;;15.43;52.79;99129.06;1657728;84;21819;-73
2022/03/31 09:11:05;;;;;;;21.60;19.30;;;;;;;15.38;53.37;99132.73;1672675;84;21671;-73
2022/03/31 09:13:37;;;;;;;21.97;19.27;;;;;;;15.52;53.63;99131.72;1674666;83;21812;-74
2022/03/31 09:16:14;;;;;;;22.07;19.10;;;;;;;15.61;52.98;99125.18;1660747;85;21871;-74
2022/03/31 09:18:43;;;;;;;21.60;18.67;;;;;;;15.69;53.07;99124.39;1627855;87;20980;-74
2022/03/31 09:21:13;;;;;;;21.80;18.93;;;;;;;15.85;52.84;99123.80;1651783;85;39918;-73
2022/03/31 09:23:44;;;;;;;19.67;17.57;;;;;;;15.89;52.47;99113.41;1650610;86;21777;-73
2022/03/31 09:26:17;;;;;;;21.90;19.60;;;;;;;15.97;52.21;99110.42;1651380;86;21933;-74
2022/03/31 09:28:46;;;;;;;19.47;17.57;;;;;;;15.98;51.76;99104.47;1650563;86;21812;-73
2022/03/31 09:31:22;;;;;;;19.43;17.40;;;;;;;16.03;52.00;99104.29;1645376;86;21165;-74
2022/03/31 09:33:55;;;;;;;19.37;17.33;;;;;;;16.15;52.02;99108.38;1613062;86;21995;-74
2022/03/31 09:36:24;;;;;;;23.77;19.80;;;;;;;16.15;52.02;99108.38;1644818;86;20984;-73
2022/03/31 09:39:01;;;;;;;20.57;18.37;;;;;;;16.17;51.56;99104.80;1670331;83;21063;-73
2022/03/31 09:41:32;;;;;;;21.07;18.83;;;;;;;16.28;51.82;99110.57;1648494;85;21836;-74
2022/03/31 09:44:03;;;;;;;21.42;19.12;;;;;;;16.48;51.24;99107.05;1650704;85;21027;-74
2022/03/31 09:46:37;;;;;;;;;;;;;;;16.57;50.98;99106.42;1617566;86;21355;-74
2022/03/31 09:49:18;;;;;;;20.63;18.47;;;;;;;16.72;51.07;99100.98;1652345;86;20205;-74
2022/03/31 09:51:50;;;;;;;20.20;18.10;;;;;;;16.90;50.60;99098.89;1645397;85;21373;-73
2022/03/31 09:54:18;;;;;;;19.77;17.70;;;;;;;17.03;49.52;99101.05;1654908;85;21663;-74
2022/03/31 09:56:53;;;;;;;20.47;18.07;;;;;;;16.96;49.68;99093.52;1670609;84;21058;-77
2022/03/31 09:59:22;;;;;;;20.03;17.77;;;;;;;16.98;49.80;99094.52;1646325;86;21209;-73
2022/03/31 10:01:51;;;;;;;19.27;17.23;;;;;;;16.99;50.13;99096.11;1647568;86;21095;-74
2022/03/31 10:04:19;;;;;;;21.10;18.90;;;;;;;17.15;49.76;99102.42;1646218;85;21118;-73
2022/03/31 10:06:52;;;;;;;19.30;17.30;;;;;;;17.30;49.48;99096.34;1653192;85;21043;-74
2022/03/31 10:09:20;;;;;;;20.68;18.00;;;;;;;17.51;48.48;99084.09;1606913;86;21058;-74
2022/03/31 10:12:21;;;;;;;20.00;17.53;;;;;;;17.51;48.48;99084.09;1656059;85;21913;-73
2022/03/31 10:15:00;;;;;;;19.23;17.33;;;;;;;17.58;48.21;99083.53;1682294;83;21024;-75
2022/03/31 10:17:31;;;;;;;20.33;17.83;;;;;;;17.50;48.33;99086.55;1647891;85;21501;-73
2022/03/31 10:20:08;;;;;;;20.93;18.67;;;;;;;17.52;48.63;99082.18;1651939;85;21138;-74
2022/03/31 10:25:22;;;;;;;22.03;19.40;;;;;;;17.80;48.32;99087.67;1638834;86;22034;-75
2022/03/31 10:27:52;;;;;;;19.87;16.87;;;;;;;17.99;47.75;99078.39;1631454;87;21121;-75
2022/03/31 10:30:23;;;;;;;20.40;18.25;;;;;;;18.07;47.33;99066.47;1631183;87;21078;-74
2022/03/31 10:33:04;;;;;;;19.93;17.93;;;;;;;18.05;47.34;99062.17;1622259;86;21192;-74
2022/03/31 10:35:39;;;;;;;17.87;16.00;;;;;;;18.05;47.23;99067.58;1634302;86;20971;-74
2022/03/31 10:38:21;;;;;;;20.37;18.27;;;;;;;18.05;47.06;99064.09;1636352;87;21581;-73
2022/03/31 10:40:54;;;;;;;;;;;;;;;18.08;46.91;99065.33;1648226;86;21684;-73
2022/03/31 10:43:28;;;;;;;17.60;15.80;;;;;;;18.17;47.02;99062.70;1642080;86;20144;-73
2022/03/31 10:46:04;;;;;;;18.67;16.60;;;;;;;18.27;46.55;99058.73;1689393;83;21110;-75
2022/03/31 10:48:29;;;;;;;19.30;17.23;;;;;;;18.36;46.85;99055.85;1706309;83;21038;-75
2022/03/31 10:51:09;;;;;;;18.50;16.60;;;;;;;18.45;46.11;99039.70;1709387;83;21250;-75
2022/03/31 10:53:41;;;;;;;19.13;17.03;;;;;;;18.52;45.89;99045.86;1695266;84;21668;-74
2022/03/31 10:56:28;;;;;;;;;;;;;;;18.54;45.67;99043.60;1693760;84;21640;-74
2022/03/31 10:59:05;;;;;;;20.37;15.27;;;;;;;18.62;45.48;99048.05;1665398;84;20405;-75
2022/03/31 11:01:36;;;;;;;17.87;15.97;;;;;;;18.68;45.54;99048.02;1682531;84;21246;-74
2022/03/31 11:04:11;;;;;;;19.27;16.47;;;;;;;18.81;45.21;99042.56;1675105;84;21114;-74
2022/03/31 11:06:57;;;;;;;19.23;17.13;;;;;;;18.90;44.86;99039.13;1684423;84;21051;-74
2022/03/31 11:09:35;;;;;;;18.73;16.80;;;;;;;18.94;44.61;99035.93;1678530;84;22273;-73
2022/03/31 11:12:01;;;;;;;18.10;15.77;;;;;;;18.97;44.50;99041.42;1677817;83;21058;-73
2022/03/31 11:14:30;;;;;;;19.57;17.47;;;;;;;19.03;44.28;99039.25;1676456;83;21549;-75
2022/03/31 11:16:58;;;;;;;19.57;16.23;;;;;;;19.07;44.20;99036.62;1677526;84;21895;-74
2022/03/31 11:19:37;;;;;;;16.97;14.93;;;;;;;19.10;44.49;99034.57;1678136;83;21118;-74
2022/03/31 11:22:06;;;;;;;18.07;14.63;;;;;;;19.19;44.42;99031.13;1680140;83;21562;-74
2022/03/31 11:24:35;;;;;;;20.20;15.73;;;;;;;19.31;44.71;99032.92;1691708;83;21033;-75
2022/03/31 11:27:03;;;;;;;18.30;15.73;;;;;;;19.43;43.73;99040.36;1681700;84;21096;-73
2022/03/31 11:29:31;;;;;;;18.33;15.00;;;;;;;19.52;43.56;99050.23;1652842;85;21220;-73
2022/03/31 11:32:02;;;;;;;18.63;15.27;;;;;;;19.63;43.48;99045.27;1639691;87;21084;-73
2022/03/31 11:34:30;;;;;;;17.57;14.17;;;;;;;19.76;42.79;99042.45;1660770;86;21032;-74
2022/03/31 11:37:00;;;;;;;19.43;14.87;;;;;;;19.81;42.67;99044.31;1630090;87;21051;-75
2022/03/31 11:39:29;;;;;;;16.53;13.00;;;;;;;20.00;42.65;99049.52;1651299;86;21209;-74
2022/03/31 11:42:08;;;;;;;12.70;11.30;;;;;;;20.24;41.87;99048.45;1653413;86;21921;-76
2022/03/31 11:44:41;;;;;;;16.07;13.00;;;;;;;20.43;41.27;99050.34;1648772;85;21782;-74